< < Back
Terminal Aerodrome Forecast


Current Version              Previous Versions:   1  2  3  4  5  6  7  8  9  

Terminal Aerodrome Forecast

564
FTUS42 KCHS 232320
TAFSAV
TAF
KSAV 232320Z 2400/2424 10010KT P6SM BKN040
     FM240300 11008KT P6SM SCT030
     FM241400 12010KT P6SM SCT040=



Latest METAR

181
SAUS80 KWBC 250100
MTRSAV
METAR KSAV 250053Z 09009KT 10SM BKN039 BKN048 24/17 A3028 RMK AO2 SLP252
T02390172 $


USA.gov is the U.S. government's official web portal to all federal, state and local government web resources and services.